createdAt,value
2018-08-23T00:00:38.299Z,18.60
2018-08-23T00:03:05.808Z,18.60
2018-08-23T00:05:33.253Z,18.70
2018-08-23T00:08:00.816Z,18.60
2018-08-23T00:10:28.295Z,18.60
2018-08-23T00:12:56.513Z,18.60
2018-08-23T00:15:23.979Z,18.60
2018-08-23T00:17:51.527Z,18.60
2018-08-23T00:20:18.988Z,18.70
2018-08-23T00:22:46.488Z,18.70
2018-08-23T00:25:13.963Z,18.70
2018-08-23T00:27:41.428Z,18.70
2018-08-23T00:30:08.899Z,18.80
2018-08-23T00:32:37.128Z,18.70
2018-08-23T00:35:04.600Z,18.70
2018-08-23T00:37:32.095Z,18.60
2018-08-23T00:39:59.604Z,18.60
2018-08-23T00:42:27.071Z,18.60
2018-08-23T00:44:54.549Z,18.50
2018-08-23T00:47:22.014Z,18.40
2018-08-23T00:49:49.482Z,18.50
2018-08-23T00:52:16.942Z,18.60
2018-08-23T00:54:44.415Z,18.60
2018-08-23T00:57:11.885Z,18.50
2018-08-23T00:59:39.453Z,18.60
2018-08-23T01:02:06.906Z,18.60
2018-08-23T01:04:34.363Z,18.60
2018-08-23T01:07:01.930Z,18.70
2018-08-23T01:09:29.460Z,18.70
2018-08-23T01:11:56.961Z,18.60
2018-08-23T01:14:24.443Z,18.60
2018-08-23T01:16:52.686Z,18.50
2018-08-23T01:19:20.148Z,18.50
2018-08-23T01:21:47.613Z,18.50
2018-08-23T01:24:15.076Z,18.40
2018-08-23T01:26:42.543Z,18.40
2018-08-23T01:29:10.020Z,18.50
2018-08-23T01:31:37.471Z,18.40
2018-08-23T01:34:04.948Z,18.30
2018-08-23T01:36:32.495Z,18.20
2018-08-23T01:39:00.069Z,18.20
2018-08-23T01:41:27.533Z,18.10
2018-08-23T01:43:55.102Z,18.10
2018-08-23T01:46:22.681Z,18.20
2018-08-23T01:48:50.150Z,18.10
2018-08-23T01:51:18.422Z,18.10
2018-08-23T01:53:46.104Z,18.10
2018-08-23T01:56:13.552Z,18.10
2018-08-23T01:58:41.026Z,18.20
2018-08-23T02:01:08.493Z,18.30
2018-08-23T02:03:36.706Z,18.60
2018-08-23T02:06:04.160Z,18.50
2018-08-23T02:08:31.614Z,18.60
2018-08-23T02:10:59.063Z,18.50
2018-08-23T02:13:26.536Z,18.60
2018-08-23T02:15:53.983Z,18.60
2018-08-23T02:18:21.441Z,18.60
2018-08-23T02:20:48.901Z,18.60
2018-08-23T02:23:16.359Z,18.80
2018-08-23T02:25:43.822Z,18.90
2018-08-23T02:28:11.289Z,18.80
2018-08-23T02:30:38.738Z,18.80
2018-08-23T02:33:06.978Z,18.70
2018-08-23T02:35:34.436Z,18.70
2018-08-23T02:38:01.920Z,18.80
2018-08-23T02:40:29.362Z,18.80
2018-08-23T02:42:56.815Z,18.80
2018-08-23T02:45:24.273Z,18.70
2018-08-23T02:47:52.231Z,18.70
2018-08-23T02:50:19.696Z,18.60
2018-08-23T02:52:47.145Z,18.70
2018-08-23T02:55:14.600Z,18.80
2018-08-23T02:57:42.071Z,18.80
2018-08-23T03:00:09.521Z,18.70
2018-08-23T03:02:37.747Z,18.90
2018-08-23T03:05:05.228Z,18.90
2018-08-23T03:07:32.673Z,18.90
2018-08-23T03:10:00.136Z,18.90
2018-08-23T03:12:27.650Z,18.80
2018-08-23T03:14:55.880Z,18.80
2018-08-23T03:17:23.316Z,18.80
2018-08-23T03:19:50.772Z,18.90
2018-08-23T03:22:18.230Z,18.80
2018-08-23T03:24:45.689Z,18.90
2018-08-23T03:27:13.910Z,18.90
2018-08-23T03:29:41.397Z,18.90
2018-08-23T03:32:08.852Z,18.80
2018-08-23T03:34:36.313Z,18.80
2018-08-23T03:37:03.794Z,18.80
2018-08-23T03:39:31.261Z,18.70
2018-08-23T03:41:59.501Z,19.00
2018-08-23T03:44:26.986Z,19.00
2018-08-23T03:46:54.457Z,18.90
2018-08-23T03:49:21.950Z,18.90
2018-08-23T03:51:51.205Z,18.80
2018-08-23T03:54:20.750Z,18.90
2018-08-23T03:56:49.065Z,18.80
2018-08-23T03:59:17.720Z,18.90
2018-08-23T04:01:46.129Z,18.90
2018-08-23T04:04:13.873Z,18.90
2018-08-23T04:06:45.680Z,19.00
2018-08-23T04:09:14.187Z,19.00
2018-08-23T04:11:41.828Z,19.00
2018-08-23T04:14:09.469Z,19.00
2018-08-23T04:16:38.285Z,19.00
2018-08-23T04:19:05.907Z,18.90
2018-08-23T04:21:35.681Z,19.10
2018-08-23T04:24:04.131Z,19.00
2018-08-23T04:26:31.824Z,19.10
2018-08-23T04:29:00.377Z,19.10
2018-08-23T04:31:28.914Z,19.00
2018-08-23T04:33:56.540Z,19.00
2018-08-23T04:36:25.402Z,19.10
2018-08-23T04:38:54.946Z,19.10
2018-08-23T04:41:22.706Z,19.10
2018-08-23T04:43:51.338Z,19.10
2018-08-23T04:46:20.709Z,19.20
2018-08-23T04:48:49.585Z,19.20
2018-08-23T04:51:20.939Z,19.20
2018-08-23T04:53:48.704Z,19.20
2018-08-23T04:56:16.679Z,19.20
2018-08-23T04:58:44.488Z,19.10
2018-08-23T05:01:13.284Z,19.10
2018-08-23T05:03:41.851Z,19.20
2018-08-23T05:06:11.513Z,19.30
2018-08-23T05:08:41.040Z,19.10
2018-08-23T05:11:10.416Z,19.20
2018-08-23T05:13:38.927Z,19.10
2018-08-23T05:16:09.052Z,19.20
2018-08-23T05:18:36.637Z,19.20
2018-08-23T05:21:05.317Z,19.20
2018-08-23T05:23:34.396Z,19.30
2018-08-23T05:26:05.210Z,19.30
2018-08-23T05:28:33.796Z,19.40
2018-08-23T05:31:04.908Z,19.40
2018-08-23T05:33:32.516Z,19.40
2018-08-23T05:36:00.852Z,19.30
2018-08-23T05:38:28.709Z,19.30
2018-08-23T05:40:56.329Z,19.30
2018-08-23T05:43:25.566Z,19.30
2018-08-23T05:45:54.489Z,19.40
2018-08-23T05:48:24.035Z,19.30
2018-08-23T05:50:52.973Z,19.30
2018-08-23T05:53:22.089Z,19.30
2018-08-23T05:55:50.633Z,19.30
2018-08-23T05:58:18.357Z,19.20
2018-08-23T06:00:47.280Z,19.20
2018-08-23T06:03:14.898Z,19.30
2018-08-23T06:05:42.752Z,19.30
2018-08-23T06:08:12.000Z,19.20
2018-08-23T06:10:40.712Z,19.30
2018-08-23T06:13:09.133Z,19.20
2018-08-23T06:15:37.834Z,19.20
2018-08-23T06:18:06.696Z,19.20
2018-08-23T06:20:34.392Z,19.20
2018-08-23T06:23:02.362Z,19.30
2018-08-23T06:25:31.514Z,19.20
2018-08-23T06:30:33.492Z,19.20
2018-08-23T06:33:01.516Z,19.20
2018-08-23T06:35:32.838Z,19.20
2018-08-23T06:38:01.394Z,19.20
2018-08-23T06:40:34.740Z,19.30
2018-08-23T06:43:03.291Z,19.30
2018-08-23T06:45:33.929Z,19.30
2018-08-23T06:48:02.520Z,19.30
2018-08-23T06:50:33.590Z,19.30
2018-08-23T06:53:01.359Z,19.30
2018-08-23T06:55:29.668Z,19.40
2018-08-23T06:58:00.887Z,19.30
2018-08-23T07:03:12.497Z,19.40
2018-08-23T07:05:42.489Z,19.30
2018-08-23T07:08:10.136Z,19.40
2018-08-23T07:10:38.485Z,19.50
2018-08-23T07:13:06.111Z,19.40
2018-08-23T07:15:34.655Z,19.40
2018-08-23T07:18:06.488Z,19.50
2018-08-23T07:20:35.273Z,19.50
2018-08-23T07:23:04.325Z,19.50
2018-08-23T07:28:06.465Z,19.60
2018-08-23T07:30:34.931Z,19.60
2018-08-23T07:33:07.554Z,19.60
2018-08-23T07:35:35.146Z,19.60
2018-08-23T07:38:02.622Z,19.60
2018-08-23T07:40:30.851Z,19.60
2018-08-23T07:42:58.310Z,19.60
2018-08-23T07:45:25.746Z,19.70
2018-08-23T07:47:53.207Z,19.70
2018-08-23T07:50:21.437Z,19.80
2018-08-23T07:52:48.989Z,19.70
2018-08-23T07:55:16.369Z,19.80
2018-08-23T07:57:43.824Z,19.80
2018-08-23T08:00:11.281Z,19.90
2018-08-23T08:02:38.756Z,19.90
2018-08-23T08:05:06.210Z,19.80
2018-08-23T08:07:33.670Z,19.90
2018-08-23T08:10:01.128Z,19.90
2018-08-23T08:12:28.581Z,19.80
2018-08-23T08:14:56.061Z,19.80
2018-08-23T08:17:23.509Z,19.80
2018-08-23T08:19:51.716Z,19.80
2018-08-23T08:22:19.167Z,19.80
2018-08-23T08:24:46.615Z,19.90
2018-08-23T08:27:14.155Z,19.90
2018-08-23T08:29:41.506Z,19.90
2018-08-23T08:32:09.714Z,20.00
2018-08-23T08:34:37.175Z,20.00
2018-08-23T08:37:04.624Z,20.00
2018-08-23T08:39:32.077Z,20.00
2018-08-23T08:42:00.367Z,20.20
2018-08-23T08:44:27.793Z,20.10
2018-08-23T08:46:55.249Z,20.20
2018-08-23T08:49:22.726Z,20.20
2018-08-23T08:51:50.176Z,20.20
2018-08-23T08:54:17.634Z,20.20
2018-08-23T08:56:45.126Z,20.20
2018-08-23T08:59:12.541Z,20.10
2018-08-23T09:01:39.998Z,20.10
2018-08-23T09:04:07.447Z,20.10
2018-08-23T09:06:34.901Z,20.10
2018-08-23T09:09:02.377Z,20.10
2018-08-23T09:11:29.823Z,20.10
2018-08-23T09:13:57.276Z,20.20
2018-08-23T09:16:24.733Z,20.20
2018-08-23T09:18:53.019Z,20.30
2018-08-23T09:21:20.397Z,20.40
2018-08-23T09:23:47.841Z,20.40
2018-08-23T09:26:15.294Z,20.40
2018-08-23T09:28:43.521Z,20.40
2018-08-23T09:31:10.977Z,20.40
2018-08-23T09:33:38.441Z,20.40
2018-08-23T09:36:05.893Z,20.50
2018-08-23T09:38:33.337Z,20.50
2018-08-23T09:41:01.557Z,20.50
2018-08-23T09:43:29.003Z,20.50
2018-08-23T09:45:56.463Z,20.50
2018-08-23T09:48:23.922Z,20.60
2018-08-23T09:50:51.450Z,20.60
2018-08-23T09:53:18.836Z,20.60
2018-08-23T09:55:46.276Z,20.70
2018-08-23T09:58:14.492Z,20.70
2018-08-23T10:00:41.953Z,20.70
2018-08-23T10:03:27.225Z,20.80
2018-08-23T10:05:54.679Z,20.80
2018-08-23T10:08:22.122Z,20.80
2018-08-23T10:11:06.009Z,20.70
2018-08-23T10:13:49.118Z,20.70
2018-08-23T10:16:16.572Z,20.80
2018-08-23T10:18:50.596Z,20.80
2018-08-23T10:21:18.057Z,20.70
2018-08-23T10:23:45.514Z,20.80
2018-08-23T10:26:12.958Z,20.80
2018-08-23T10:28:40.429Z,20.80
2018-08-23T10:31:07.875Z,20.90
2018-08-23T10:33:35.319Z,20.90
2018-08-23T10:36:03.526Z,21.00
2018-08-23T10:38:30.997Z,21.00
2018-08-23T10:40:58.440Z,20.90
2018-08-23T10:43:26.664Z,20.90
2018-08-23T10:45:54.108Z,20.90
2018-08-23T10:48:21.567Z,21.00
2018-08-23T10:50:49.080Z,21.00
2018-08-23T10:53:16.483Z,21.10
2018-08-23T10:55:43.931Z,21.00
2018-08-23T10:58:12.162Z,20.90
2018-08-23T11:00:39.618Z,20.90
2018-08-23T11:03:07.077Z,20.70
2018-08-23T11:05:34.529Z,20.70
2018-08-23T11:08:01.982Z,20.70
2018-08-23T11:10:44.310Z,20.70
2018-08-23T11:13:11.760Z,20.70
2018-08-23T11:15:39.216Z,20.80
2018-08-23T11:18:12.446Z,20.90
2018-08-23T11:20:39.897Z,21.00
2018-08-23T11:23:07.365Z,21.00
2018-08-23T11:25:34.804Z,21.10
2018-08-23T11:28:02.257Z,21.20
2018-08-23T11:30:29.709Z,21.20
2018-08-23T11:32:57.175Z,21.20
2018-08-23T11:35:24.626Z,21.20
2018-08-23T11:37:52.082Z,21.10
2018-08-23T11:40:20.289Z,21.20
2018-08-23T11:42:48.571Z,21.30
2018-08-23T11:45:15.955Z,21.30
2018-08-23T11:47:43.411Z,21.30
2018-08-23T11:50:10.868Z,21.30
2018-08-23T11:52:38.332Z,21.40
2018-08-23T11:55:05.773Z,21.40
2018-08-23T11:57:33.992Z,21.50
2018-08-23T12:00:01.454Z,21.50
2018-08-23T12:02:28.902Z,21.60
2018-08-23T12:04:56.369Z,21.50
2018-08-23T12:07:23.834Z,21.40
2018-08-23T12:09:51.310Z,21.50
2018-08-23T12:12:18.741Z,21.50
2018-08-23T12:14:46.196Z,21.40
2018-08-23T12:17:13.652Z,21.50
2018-08-23T12:19:41.104Z,21.60
2018-08-23T12:22:08.596Z,21.60
2018-08-23T12:24:36.056Z,21.60
2018-08-23T12:27:03.515Z,21.60
2018-08-23T12:29:30.988Z,21.70
2018-08-23T12:54:51.137Z,21.90
2018-08-23T12:57:18.597Z,21.80
2018-08-23T12:59:46.057Z,21.90
2018-08-23T13:02:13.545Z,21.90
2018-08-23T13:04:40.967Z,21.80
2018-08-23T13:07:09.236Z,21.80
2018-08-23T13:09:36.654Z,21.80
2018-08-23T13:12:04.091Z,21.80
2018-08-23T13:14:31.577Z,21.80
2018-08-23T13:16:59.027Z,21.80
2018-08-23T13:19:27.327Z,21.80
2018-08-23T13:21:54.832Z,21.80
2018-08-23T13:24:22.985Z,21.80
2018-08-23T13:26:50.452Z,21.80
2018-08-23T13:29:17.903Z,21.90
2018-08-23T13:31:45.388Z,21.80
2018-08-23T13:34:12.833Z,21.80
2018-08-23T13:36:40.378Z,21.80
2018-08-23T13:39:09.260Z,21.80
2018-08-23T13:41:36.725Z,21.80
2018-08-23T13:44:04.288Z,21.90
2018-08-23T13:46:31.639Z,21.90
2018-08-23T13:48:59.101Z,21.90
2018-08-23T13:51:27.712Z,22.00
2018-08-23T13:53:55.168Z,22.00
2018-08-23T13:56:22.616Z,22.00
2018-08-23T13:58:50.091Z,22.00
2018-08-23T14:01:17.545Z,22.00
2018-08-23T14:03:45.004Z,22.00
2018-08-23T14:06:12.519Z,22.00
2018-08-23T14:08:39.928Z,22.00
2018-08-23T14:11:07.448Z,21.90
2018-08-23T14:13:34.866Z,22.00
2018-08-23T14:16:02.324Z,22.00
2018-08-23T14:18:29.786Z,22.00
2018-08-23T14:20:57.248Z,21.80
2018-08-23T14:23:24.726Z,21.90
2018-08-23T14:25:52.169Z,21.90
2018-08-23T14:28:19.645Z,22.00
2018-08-23T14:30:47.857Z,22.00
2018-08-23T14:33:15.335Z,22.00
2018-08-23T14:35:42.807Z,22.00
2018-08-23T14:38:11.126Z,21.90
2018-08-23T14:40:38.583Z,21.90
2018-08-23T14:43:06.030Z,21.90
2018-08-23T14:45:33.478Z,22.00
2018-08-23T14:48:11.598Z,21.90
2018-08-23T14:50:39.069Z,21.90
2018-08-23T14:53:06.539Z,21.90
2018-08-23T14:55:34.015Z,21.90
2018-08-23T14:58:01.469Z,21.90
2018-08-23T15:00:28.926Z,21.90
2018-08-23T15:02:57.160Z,21.90
2018-08-23T15:05:24.620Z,21.90
2018-08-23T15:07:52.076Z,21.90
2018-08-23T15:10:19.533Z,21.70
2018-08-23T15:12:46.993Z,21.70
2018-08-23T15:15:14.446Z,21.70
2018-08-23T15:17:41.889Z,21.70
2018-08-23T15:22:43.313Z,21.60
2018-08-23T15:25:11.153Z,21.70
2018-08-23T15:27:38.607Z,21.70
2018-08-23T15:30:06.057Z,21.60
2018-08-23T15:32:33.614Z,21.70
2018-08-23T15:35:01.062Z,21.60
2018-08-23T15:37:29.286Z,21.60
2018-08-23T15:39:56.868Z,21.60
2018-08-23T15:42:25.094Z,21.60
2018-08-23T15:44:52.569Z,21.60
2018-08-23T15:47:20.027Z,21.60
2018-08-23T15:49:47.508Z,21.60
2018-08-23T15:52:15.365Z,21.60
2018-08-23T15:54:42.835Z,21.50
2018-08-23T15:57:11.432Z,21.50
2018-08-23T15:59:38.895Z,21.50
2018-08-23T16:02:06.357Z,21.40
2018-08-23T16:04:33.806Z,21.30
2018-08-23T16:07:01.282Z,21.30
2018-08-23T16:09:28.784Z,21.30
2018-08-23T16:11:56.531Z,21.20
2018-08-23T16:14:24.913Z,21.00
2018-08-23T16:16:52.398Z,21.10
2018-08-23T16:19:19.866Z,20.90
2018-08-23T16:21:47.323Z,20.90
2018-08-23T16:24:14.779Z,20.90
2018-08-23T16:26:42.241Z,20.90
2018-08-23T16:29:09.708Z,20.90
2018-08-23T16:31:37.206Z,20.90
2018-08-23T16:34:04.613Z,20.80
2018-08-23T16:36:33.225Z,20.70
2018-08-23T16:39:00.689Z,20.70
2018-08-23T16:41:28.145Z,20.70
2018-08-23T16:43:55.601Z,20.70
2018-08-23T16:46:23.061Z,20.50
2018-08-23T16:48:50.538Z,20.50
2018-08-23T16:51:17.996Z,20.40
2018-08-23T16:53:46.966Z,20.50
2018-08-23T16:56:14.412Z,20.50
2018-08-23T16:58:41.936Z,20.50
2018-08-23T17:01:09.330Z,20.50
2018-08-23T17:03:36.781Z,20.50
2018-08-23T17:06:05.003Z,20.70
2018-08-23T17:08:32.480Z,20.60
2018-08-23T17:10:59.938Z,20.60
2018-08-23T17:13:27.393Z,20.50
2018-08-23T17:15:54.873Z,20.50
2018-08-23T17:18:22.342Z,20.40
2018-08-23T17:20:49.769Z,20.40
2018-08-23T17:23:17.964Z,20.20
2018-08-23T17:25:46.157Z,20.20
2018-08-23T17:28:13.600Z,20.20
2018-08-23T17:30:41.106Z,20.20
2018-08-23T17:33:08.494Z,20.20
2018-08-23T17:35:35.945Z,20.10
2018-08-23T17:38:04.179Z,20.00
2018-08-23T17:40:31.635Z,20.00
2018-08-23T17:42:59.130Z,20.00
2018-08-23T17:45:26.600Z,20.00
2018-08-23T17:47:54.057Z,20.00
2018-08-23T17:50:21.513Z,19.70
2018-08-23T17:52:48.981Z,19.60
2018-08-23T17:55:16.451Z,19.30
2018-08-23T17:57:43.888Z,19.00
2018-08-23T18:00:12.168Z,18.90
2018-08-23T18:02:40.752Z,19.00
2018-08-23T18:05:08.203Z,18.90
2018-08-23T18:07:35.680Z,19.10
2018-08-23T18:10:03.137Z,19.10
2018-08-23T18:12:32.211Z,19.00
2018-08-23T18:14:59.666Z,19.00
2018-08-23T18:17:27.847Z,18.90
2018-08-23T18:19:55.303Z,18.70
2018-08-23T18:24:51.598Z,20.70
2018-08-23T18:27:19.047Z,19.80
2018-08-23T18:29:46.520Z,19.50
2018-08-23T18:32:14.013Z,19.30
2018-08-23T18:34:41.436Z,18.90
2018-08-23T18:37:08.901Z,18.90
2018-08-23T18:39:36.378Z,18.90
2018-08-23T18:42:03.817Z,18.70
2018-08-23T18:44:31.300Z,18.60
2018-08-23T18:46:58.788Z,18.60
2018-08-23T18:49:26.221Z,18.60
2018-08-23T18:51:54.459Z,18.50
2018-08-23T18:54:22.726Z,18.40
2018-08-23T18:56:50.134Z,18.40
2018-08-23T18:59:17.581Z,18.40
2018-08-23T19:01:45.035Z,18.30
2018-08-23T19:04:13.626Z,18.20
2018-08-23T19:06:41.074Z,18.10
2018-08-23T19:09:09.297Z,18.10
2018-08-23T19:11:37.527Z,18.10
2018-08-23T19:14:05.759Z,17.90
2018-08-23T19:16:33.241Z,17.90
2018-08-23T19:19:00.741Z,17.90
2018-08-23T19:21:28.165Z,18.00
2018-08-23T19:23:55.642Z,17.90
2018-08-23T19:26:23.133Z,18.00
2018-08-23T19:28:50.593Z,17.80
2018-08-23T19:31:18.855Z,17.80
2018-08-23T19:33:46.287Z,17.80
2018-08-23T19:36:13.758Z,17.80
2018-08-23T19:38:41.208Z,17.70
2018-08-23T19:41:09.463Z,17.70
2018-08-23T19:43:38.106Z,17.70
2018-08-23T19:46:05.569Z,17.50
2018-08-23T19:48:33.043Z,17.40
2018-08-23T19:51:00.501Z,17.60
2018-08-23T19:53:28.747Z,17.80
2018-08-23T19:55:56.246Z,17.70
2018-08-23T19:58:24.465Z,17.80
2018-08-23T20:00:51.933Z,17.80
2018-08-23T20:03:19.735Z,18.00
2018-08-23T20:05:47.961Z,18.00
2018-08-23T20:08:16.210Z,18.00
2018-08-23T20:10:43.669Z,18.00
2018-08-23T20:13:11.141Z,17.90
2018-08-23T20:15:38.622Z,18.00
2018-08-23T20:18:06.851Z,18.00
2018-08-23T20:20:34.296Z,18.00
2018-08-23T20:23:01.870Z,18.00
2018-08-23T20:25:29.350Z,17.80
2018-08-23T20:27:56.817Z,17.80
2018-08-23T20:30:24.269Z,17.80
2018-08-23T20:32:51.733Z,17.90
2018-08-23T20:35:19.192Z,17.90
2018-08-23T20:37:47.426Z,17.90
2018-08-23T20:40:16.874Z,17.60
2018-08-23T20:42:44.336Z,17.60
2018-08-23T20:45:11.785Z,17.40
2018-08-23T20:47:39.261Z,17.50
2018-08-23T20:50:06.709Z,17.70
2018-08-23T20:52:34.202Z,17.70
2018-08-23T20:55:01.633Z,17.80
2018-08-23T20:57:29.084Z,17.60
2018-08-23T20:59:56.561Z,17.50
2018-08-23T21:02:24.025Z,17.70
2018-08-23T21:04:51.522Z,17.70
2018-08-23T21:07:21.666Z,17.60
2018-08-23T21:09:49.924Z,17.70
2018-08-23T21:12:17.385Z,17.70
2018-08-23T21:14:44.866Z,17.40
2018-08-23T21:17:12.334Z,17.50
2018-08-23T21:19:39.780Z,17.50
2018-08-23T21:22:07.253Z,17.50
2018-08-23T21:24:34.716Z,17.40
2018-08-23T21:27:02.181Z,17.40
2018-08-23T21:29:29.671Z,17.20
2018-08-23T21:31:57.890Z,17.30
2018-08-23T21:34:25.357Z,17.30
2018-08-23T21:36:52.804Z,17.20
2018-08-23T21:39:20.273Z,17.00
2018-08-23T21:41:47.784Z,16.90
2018-08-23T21:44:15.244Z,17.00
2018-08-23T21:46:42.726Z,16.90
2018-08-23T21:49:10.963Z,17.10
2018-08-23T21:51:38.438Z,17.10
2018-08-23T21:54:06.665Z,17.00
2018-08-23T21:56:34.138Z,16.90
2018-08-23T21:59:01.584Z,16.90
2018-08-23T22:01:29.834Z,16.80
2018-08-23T22:03:57.293Z,16.80
2018-08-23T22:06:24.756Z,16.80
2018-08-23T22:08:52.217Z,17.10
2018-08-23T22:11:19.686Z,17.00
2018-08-23T22:13:47.140Z,16.70
2018-08-23T22:16:14.599Z,16.50
2018-08-23T22:18:42.068Z,16.20
2018-08-23T22:21:09.543Z,16.20
2018-08-23T22:23:37.007Z,16.20
2018-08-23T22:26:04.441Z,16.30
2018-08-23T22:28:31.972Z,16.40
2018-08-23T22:30:59.420Z,16.40
2018-08-23T22:33:26.880Z,16.40
2018-08-23T22:35:55.126Z,16.40
2018-08-23T22:38:22.608Z,16.40
2018-08-23T22:40:50.085Z,16.60
2018-08-23T22:43:18.609Z,16.50
2018-08-23T22:45:46.288Z,16.40
2018-08-23T22:48:13.752Z,16.50
2018-08-23T22:50:41.217Z,16.60
2018-08-23T22:53:09.444Z,16.30
2018-08-23T22:55:37.671Z,16.30
2018-08-23T22:58:05.138Z,16.30
2018-08-23T23:00:33.369Z,16.30
2018-08-23T23:03:01.595Z,16.20
2018-08-23T23:05:29.054Z,16.20
2018-08-23T23:07:56.517Z,16.30
2018-08-23T23:10:23.985Z,16.30
2018-08-23T23:12:52.195Z,16.60
2018-08-23T23:15:19.644Z,16.60
2018-08-23T23:17:47.113Z,16.40
2018-08-23T23:20:14.564Z,16.50
2018-08-23T23:22:42.049Z,16.50
2018-08-23T23:25:09.506Z,16.50
2018-08-23T23:27:37.238Z,16.50
2018-08-23T23:30:04.788Z,16.40
2018-08-23T23:32:32.261Z,16.40
2018-08-23T23:34:59.719Z,16.50
2018-08-23T23:37:27.179Z,16.40
2018-08-23T23:39:54.640Z,16.40
2018-08-23T23:42:22.093Z,16.30
2018-08-23T23:44:49.560Z,16.30
2018-08-23T23:47:17.009Z,16.40
2018-08-23T23:49:44.485Z,16.40
2018-08-23T23:52:11.937Z,16.30
2018-08-23T23:54:39.402Z,16.20
2018-08-23T23:57:06.861Z,16.20
2018-08-23T23:59:34.324Z,16.20
